首页
METAR-TAF:

METAR-TAF

机场 :

泰德·史蒂文斯安克雷奇國際機場

安克拉治, 阿拉斯加州, 美国

纬度: 61-10-28N, 经度: 149-59-46W, 海拔: 44米

当前天气观测

该预报发布于50分钟前的12:53 UTC
静风
温度 5°C
湿度 87%
气压 1020 hPa
能見度: 16.1公里
天空无云

METAR: PANC 221253Z 00000KT 10SM CLR 05/03 A3011 RMK AO2 SLP197 T00500033 $

时间: 05:43 (13:43 UTC)

预报

该预报发布于1小时和59分钟前的11:44 UTC
预报有效从22日的 12点(UTC)到 23日的 18点(UTC)
风速8节,风向西转西南
能見度: 10公里
天空无云
从 22日的 2200点(UTC)
风速15节,风向南转南东,有时为25节阵风
能見度: 10公里
散云层高于7000英尺
多云层高于12000英尺
从 23日的 0200点(UTC)
风速25节,风向南转南东,有时为35节阵风
能見度: 10公里
散云层高于7000英尺
多云层高于12000英尺
从 23日的 0900点(UTC)
风速12节,风向南转南东,有时为20节阵风
能見度: 10公里
多云层高于6000英尺
阴天层高于12000英尺
附近有阵雨
从 23日的 1200点(UTC)
风速6节,风向
能見度: 10公里
散云层高于3500英尺
多云层高于6000英尺
附近有阵雨

TAF: PANC 221144Z 2212/2318 25008KT P6SM SKC FM222200 16015G25KT P6SM SCT070 BKN120 FM230200 16025G35KT P6SM SCT070 BKN120 FM230900 15012G20KT P6SM VCSH BKN060 OVC120 FM231200 36006KT P6SM VCSH SCT035 BKN060

超过4000个机场的气象观测和天气预报(METAR&TAF报告)。

可查询的气象台以黄色和红色小点在地图上表示。

将鼠标移到小点上方,可查看气象台名称。

然后点击查看天气观测和预报。

如需切换地图:点击带黑十字的绿色按钮放大地图;点击带横线的绿色按钮缩小地图;或者点击绿色箭头查看邻近地区的地图。


METAR-TAF: